sensor_id;sensor_type;location;lat;lon;timestamp;temperature;humidity
7684;DHT22;3884;48.616;12.872;2023-07-31T00:01:57;17.30;99.90
7684;DHT22;3884;48.616;12.872;2023-07-31T00:04:24;17.20;99.90
7684;DHT22;3884;48.616;12.872;2023-07-31T00:06:52;17.20;99.90
7684;DHT22;3884;48.616;12.872;2023-07-31T00:09:19;17.10;99.90
7684;DHT22;3884;48.616;12.872;2023-07-31T00:11:46;17.00;99.90
7684;DHT22;3884;48.616;12.872;2023-07-31T00:14:13;17.00;99.90
7684;DHT22;3884;48.616;12.872;2023-07-31T00:16:40;17.00;99.90
7684;DHT22;3884;48.616;12.872;2023-07-31T00:19:07;17.00;99.90
7684;DHT22;3884;48.616;12.872;2023-07-31T00:21:33;16.90;74.60
7684;DHT22;3884;48.616;12.872;2023-07-31T00:24:02;16.90;86.50
7684;DHT22;3884;48.616;12.872;2023-07-31T00:26:29;16.80;99.90
7684;DHT22;3884;48.616;12.872;2023-07-31T00:28:55;16.80;99.90
7684;DHT22;3884;48.616;12.872;2023-07-31T00:31:22;16.70;99.90
7684;DHT22;3884;48.616;12.872;2023-07-31T00:33:49;16.70;99.90
7684;DHT22;3884;48.616;12.872;2023-07-31T00:36:16;16.60;99.90
7684;DHT22;3884;48.616;12.872;2023-07-31T00:38:44;16.60;99.90
7684;DHT22;3884;48.616;12.872;2023-07-31T00:41:12;16.60;99.90
7684;DHT22;3884;48.616;12.872;2023-07-31T00:43:39;16.60;99.90
7684;DHT22;3884;48.616;12.872;2023-07-31T00:46:07;16.50;99.90
7684;DHT22;3884;48.616;12.872;2023-07-31T00:48:34;16.50;99.90
7684;DHT22;3884;48.616;12.872;2023-07-31T00:51:02;16.50;99.90
7684;DHT22;3884;48.616;12.872;2023-07-31T00:53:29;16.50;99.90
7684;DHT22;3884;48.616;12.872;2023-07-31T00:55:56;16.50;99.90
7684;DHT22;3884;48.616;12.872;2023-07-31T00:58:24;16.40;99.90
7684;DHT22;3884;48.616;12.872;2023-07-31T01:00:51;16.30;99.90
7684;DHT22;3884;48.616;12.872;2023-07-31T01:03:19;16.30;99.90
7684;DHT22;3884;48.616;12.872;2023-07-31T01:05:52;16.30;99.90
7684;DHT22;3884;48.616;12.872;2023-07-31T01:08:26;16.20;99.90
7684;DHT22;3884;48.616;12.872;2023-07-31T01:11:00;16.20;99.90
7684;DHT22;3884;48.616;12.872;2023-07-31T01:13:30;16.10;99.90
7684;DHT22;3884;48.616;12.872;2023-07-31T01:15:57;16.10;99.90
7684;DHT22;3884;48.616;12.872;2023-07-31T01:18:24;16.00;99.90
7684;DHT22;3884;48.616;12.872;2023-07-31T01:20:55;16.00;1.00
7684;DHT22;3884;48.616;12.872;2023-07-31T01:23:51;15.90;1.00
7684;DHT22;3884;48.616;12.872;2023-07-31T01:26:22;15.90;99.90
7684;DHT22;3884;48.616;12.872;2023-07-31T01:28:56;15.80;99.90
7684;DHT22;3884;48.616;12.872;2023-07-31T01:31:28;15.50;99.90
7684;DHT22;3884;48.616;12.872;2023-07-31T01:33:59;15.60;1.00
7684;DHT22;3884;48.616;12.872;2023-07-31T01:36:26;15.60;99.90
7684;DHT22;3884;48.616;12.872;2023-07-31T01:38:58;15.50;99.90
7684;DHT22;3884;48.616;12.872;2023-07-31T01:41:26;15.40;1.00
7684;DHT22;3884;48.616;12.872;2023-07-31T01:43:53;15.50;1.00
7684;DHT22;3884;48.616;12.872;2023-07-31T01:46:20;15.50;1.00
7684;DHT22;3884;48.616;12.872;2023-07-31T01:48:46;15.50;1.00
7684;DHT22;3884;48.616;12.872;2023-07-31T01:51:13;15.40;99.80
7684;DHT22;3884;48.616;12.872;2023-07-31T01:53:40;15.40;99.90
7684;DHT22;3884;48.616;12.872;2023-07-31T01:56:07;15.30;99.90
7684;DHT22;3884;48.616;12.872;2023-07-31T01:58:35;15.20;1.00
7684;DHT22;3884;48.616;12.872;2023-07-31T02:01:02;15.20;1.00
7684;DHT22;3884;48.616;12.872;2023-07-31T02:03:29;15.20;1.00
7684;DHT22;3884;48.616;12.872;2023-07-31T02:05:56;15.10;1.00
7684;DHT22;3884;48.616;12.872;2023-07-31T02:08:24;15.10;1.00
7684;DHT22;3884;48.616;12.872;2023-07-31T02:10:51;15.10;99.90
7684;DHT22;3884;48.616;12.872;2023-07-31T02:13:18;15.00;99.90
7684;DHT22;3884;48.616;12.872;2023-07-31T02:15:47;15.00;99.90
7684;DHT22;3884;48.616;12.872;2023-07-31T02:18:14;15.10;99.90
7684;DHT22;3884;48.616;12.872;2023-07-31T02:20:41;15.10;99.90
7684;DHT22;3884;48.616;12.872;2023-07-31T02:23:08;15.10;99.90
7684;DHT22;3884;48.616;12.872;2023-07-31T02:25:35;15.20;99.90
7684;DHT22;3884;48.616;12.872;2023-07-31T02:28:01;15.30;99.90
7684;DHT22;3884;48.616;12.872;2023-07-31T02:30:28;15.30;1.00
7684;DHT22;3884;48.616;12.872;2023-07-31T02:32:56;15.30;1.00
7684;DHT22;3884;48.616;12.872;2023-07-31T02:35:23;15.30;99.90
7684;DHT22;3884;48.616;12.872;2023-07-31T02:37:50;15.30;99.90
7684;DHT22;3884;48.616;12.872;2023-07-31T02:40:19;15.30;1.00
7684;DHT22;3884;48.616;12.872;2023-07-31T02:42:46;15.20;31.70
7684;DHT22;3884;48.616;12.872;2023-07-31T02:45:12;15.10;99.90
7684;DHT22;3884;48.616;12.872;2023-07-31T02:47:39;15.10;1.00
7684;DHT22;3884;48.616;12.872;2023-07-31T02:50:09;15.20;99.90
7684;DHT22;3884;48.616;12.872;2023-07-31T02:52:36;15.20;99.90
7684;DHT22;3884;48.616;12.872;2023-07-31T02:55:03;15.20;1.00
7684;DHT22;3884;48.616;12.872;2023-07-31T02:57:30;15.10;99.90
7684;DHT22;3884;48.616;12.872;2023-07-31T02:59:57;15.10;99.90
7684;DHT22;3884;48.616;12.872;2023-07-31T03:02:24;15.10;99.90
7684;DHT22;3884;48.616;12.872;2023-07-31T03:04:51;15.20;1.00
7684;DHT22;3884;48.616;12.872;2023-07-31T03:07:19;15.20;1.00
7684;DHT22;3884;48.616;12.872;2023-07-31T03:09:46;15.20;1.00
7684;DHT22;3884;48.616;12.872;2023-07-31T03:12:14;15.20;99.90
7684;DHT22;3884;48.616;12.872;2023-07-31T03:14:41;15.10;1.00
7684;DHT22;3884;48.616;12.872;2023-07-31T03:17:08;15.00;1.00
7684;DHT22;3884;48.616;12.872;2023-07-31T03:19:35;15.00;1.00
7684;DHT22;3884;48.616;12.872;2023-07-31T03:22:02;14.90;99.90
7684;DHT22;3884;48.616;12.872;2023-07-31T03:24:30;15.00;99.90
7684;DHT22;3884;48.616;12.872;2023-07-31T03:26:57;14.90;1.00
7684;DHT22;3884;48.616;12.872;2023-07-31T03:29:24;14.70;71.70
7684;DHT22;3884;48.616;12.872;2023-07-31T03:31:52;14.70;99.90
7684;DHT22;3884;48.616;12.872;2023-07-31T03:34:18;14.70;1.00
7684;DHT22;3884;48.616;12.872;2023-07-31T03:36:45;14.60;1.00
7684;DHT22;3884;48.616;12.872;2023-07-31T03:39:12;14.60;1.00
7684;DHT22;3884;48.616;12.872;2023-07-31T03:41:40;14.60;1.00
7684;DHT22;3884;48.616;12.872;2023-07-31T03:44:07;14.60;99.90
7684;DHT22;3884;48.616;12.872;2023-07-31T03:46:34;14.50;1.00
7684;DHT22;3884;48.616;12.872;2023-07-31T03:49:01;14.40;99.90
7684;DHT22;3884;48.616;12.872;2023-07-31T03:51:28;14.40;99.90
7684;DHT22;3884;48.616;12.872;2023-07-31T03:53:55;14.40;99.90
7684;DHT22;3884;48.616;12.872;2023-07-31T03:56:22;14.40;78.20
7684;DHT22;3884;48.616;12.872;2023-07-31T03:58:50;14.50;99.90
7684;DHT22;3884;48.616;12.872;2023-07-31T04:01:17;14.40;1.00
7684;DHT22;3884;48.616;12.872;2023-07-31T04:03:45;14.30;99.90
7684;DHT22;3884;48.616;12.872;2023-07-31T04:06:12;14.30;1.00
7684;DHT22;3884;48.616;12.872;2023-07-31T04:08:38;14.30;1.00
7684;DHT22;3884;48.616;12.872;2023-07-31T04:11:05;14.40;1.00
7684;DHT22;3884;48.616;12.872;2023-07-31T04:13:32;14.40;1.00
7684;DHT22;3884;48.616;12.872;2023-07-31T04:16:00;14.40;99.90
7684;DHT22;3884;48.616;12.872;2023-07-31T04:18:27;14.40;86.70
7684;DHT22;3884;48.616;12.872;2023-07-31T04:20:56;14.40;1.00
7684;DHT22;3884;48.616;12.872;2023-07-31T04:23:24;14.40;99.90
7684;DHT22;3884;48.616;12.872;2023-07-31T04:25:51;14.30;1.00
7684;DHT22;3884;48.616;12.872;2023-07-31T04:28:18;14.30;1.00
7684;DHT22;3884;48.616;12.872;2023-07-31T04:30:45;14.40;99.90
7684;DHT22;3884;48.616;12.872;2023-07-31T04:33:14;14.40;1.00
7684;DHT22;3884;48.616;12.872;2023-07-31T04:35:41;14.30;1.00
7684;DHT22;3884;48.616;12.872;2023-07-31T04:38:07;14.40;1.00
7684;DHT22;3884;48.616;12.872;2023-07-31T04:40:34;14.50;99.90
7684;DHT22;3884;48.616;12.872;2023-07-31T04:43:01;14.60;1.00
7684;DHT22;3884;48.616;12.872;2023-07-31T04:45:28;14.60;20.70
7684;DHT22;3884;48.616;12.872;2023-07-31T04:47:55;14.70;99.90
7684;DHT22;3884;48.616;12.872;2023-07-31T04:50:23;14.80;1.00
7684;DHT22;3884;48.616;12.872;2023-07-31T04:52:50;14.80;43.10
7684;DHT22;3884;48.616;12.872;2023-07-31T04:55:17;14.90;1.00
7684;DHT22;3884;48.616;12.872;2023-07-31T04:57:43;14.90;99.90
7684;DHT22;3884;48.616;12.872;2023-07-31T05:00:11;14.90;99.90
7684;DHT22;3884;48.616;12.872;2023-07-31T05:02:38;14.90;1.00
7684;DHT22;3884;48.616;12.872;2023-07-31T05:05:05;15.00;1.00
7684;DHT22;3884;48.616;12.872;2023-07-31T05:07:33;15.00;99.90
7684;DHT22;3884;48.616;12.872;2023-07-31T05:10:00;15.00;44.50
7684;DHT22;3884;48.616;12.872;2023-07-31T05:12:27;15.00;99.90
7684;DHT22;3884;48.616;12.872;2023-07-31T05:14:53;14.80;99.90
7684;DHT22;3884;48.616;12.872;2023-07-31T05:17:20;14.70;1.00
7684;DHT22;3884;48.616;12.872;2023-07-31T05:19:47;14.70;1.00
7684;DHT22;3884;48.616;12.872;2023-07-31T05:22:14;14.80;1.00
7684;DHT22;3884;48.616;12.872;2023-07-31T05:24:42;14.90;1.00
7684;DHT22;3884;48.616;12.872;2023-07-31T05:27:09;15.00;99.90
7684;DHT22;3884;48.616;12.872;2023-07-31T05:29:36;15.10;99.90
7684;DHT22;3884;48.616;12.872;2023-07-31T05:32:03;15.20;1.00
7684;DHT22;3884;48.616;12.872;2023-07-31T05:34:30;15.40;83.80
7684;DHT22;3884;48.616;12.872;2023-07-31T05:36:57;15.60;1.00
7684;DHT22;3884;48.616;12.872;2023-07-31T05:39:24;15.90;99.90
7684;DHT22;3884;48.616;12.872;2023-07-31T05:41:52;16.00;99.90
7684;DHT22;3884;48.616;12.872;2023-07-31T05:44:19;16.20;1.00
7684;DHT22;3884;48.616;12.872;2023-07-31T05:46:46;16.30;1.00
7684;DHT22;3884;48.616;12.872;2023-07-31T05:49:13;16.40;1.00
7684;DHT22;3884;48.616;12.872;2023-07-31T05:51:40;16.50;1.00
7684;DHT22;3884;48.616;12.872;2023-07-31T05:54:06;16.60;99.90
7684;DHT22;3884;48.616;12.872;2023-07-31T05:56:33;16.70;99.90
7684;DHT22;3884;48.616;12.872;2023-07-31T05:59:02;16.80;31.70
7684;DHT22;3884;48.616;12.872;2023-07-31T06:01:28;16.90;99.90
7684;DHT22;3884;48.616;12.872;2023-07-31T06:03:55;16.90;99.90
7684;DHT22;3884;48.616;12.872;2023-07-31T06:06:22;16.90;99.90
7684;DHT22;3884;48.616;12.872;2023-07-31T06:08:49;17.00;99.90
7684;DHT22;3884;48.616;12.872;2023-07-31T06:11:16;17.00;50.60
7684;DHT22;3884;48.616;12.872;2023-07-31T06:13:43;17.10;1.00
7684;DHT22;3884;48.616;12.872;2023-07-31T06:16:14;17.30;56.70
7684;DHT22;3884;48.616;12.872;2023-07-31T06:18:41;17.40;1.00
7684;DHT22;3884;48.616;12.872;2023-07-31T06:21:08;17.60;99.90
7684;DHT22;3884;48.616;12.872;2023-07-31T06:23:35;17.80;99.90
7684;DHT22;3884;48.616;12.872;2023-07-31T06:26:02;17.90;99.90
7684;DHT22;3884;48.616;12.872;2023-07-31T06:28:29;18.10;99.90
7684;DHT22;3884;48.616;12.872;2023-07-31T06:30:56;18.30;99.90
7684;DHT22;3884;48.616;12.872;2023-07-31T06:33:25;18.50;99.90
7684;DHT22;3884;48.616;12.872;2023-07-31T06:35:51;18.60;99.90
7684;DHT22;3884;48.616;12.872;2023-07-31T06:38:22;18.70;73.60
7684;DHT22;3884;48.616;12.872;2023-07-31T06:40:49;18.80;20.20
7684;DHT22;3884;48.616;12.872;2023-07-31T06:43:16;18.80;33.00
7684;DHT22;3884;48.616;12.872;2023-07-31T06:45:43;18.90;95.90
7684;DHT22;3884;48.616;12.872;2023-07-31T06:48:10;19.00;99.90
7684;DHT22;3884;48.616;12.872;2023-07-31T06:50:38;19.00;14.50
7684;DHT22;3884;48.616;12.872;2023-07-31T06:53:05;19.00;1.00
7684;DHT22;3884;48.616;12.872;2023-07-31T06:55:32;19.00;1.00
7684;DHT22;3884;48.616;12.872;2023-07-31T06:57:59;19.00;1.00
7684;DHT22;3884;48.616;12.872;2023-07-31T07:00:26;19.10;1.00
7684;DHT22;3884;48.616;12.872;2023-07-31T07:02:54;19.30;25.10
7684;DHT22;3884;48.616;12.872;2023-07-31T07:05:21;19.30;1.00
7684;DHT22;3884;48.616;12.872;2023-07-31T07:07:50;19.40;1.00
7684;DHT22;3884;48.616;12.872;2023-07-31T07:10:18;19.40;1.00
7684;DHT22;3884;48.616;12.872;2023-07-31T07:12:46;19.50;1.00
7684;DHT22;3884;48.616;12.872;2023-07-31T07:15:13;19.50;1.00
7684;DHT22;3884;48.616;12.872;2023-07-31T07:17:40;19.50;1.00
7684;DHT22;3884;48.616;12.872;2023-07-31T07:20:08;19.60;1.00
7684;DHT22;3884;48.616;12.872;2023-07-31T07:22:35;19.70;1.00
7684;DHT22;3884;48.616;12.872;2023-07-31T07:25:04;19.80;1.00
7684;DHT22;3884;48.616;12.872;2023-07-31T07:27:32;19.90;1.00
7684;DHT22;3884;48.616;12.872;2023-07-31T07:29:59;20.10;1.00
7684;DHT22;3884;48.616;12.872;2023-07-31T07:32:26;20.10;1.00
7684;DHT22;3884;48.616;12.872;2023-07-31T07:34:53;19.90;1.00
7684;DHT22;3884;48.616;12.872;2023-07-31T07:37:21;20.10;1.00
7684;DHT22;3884;48.616;12.872;2023-07-31T07:39:48;20.20;1.00
7684;DHT22;3884;48.616;12.872;2023-07-31T07:42:17;20.10;1.00
7684;DHT22;3884;48.616;12.872;2023-07-31T07:44:44;20.30;1.00
7684;DHT22;3884;48.616;12.872;2023-07-31T07:47:11;20.40;1.00
7684;DHT22;3884;48.616;12.872;2023-07-31T07:49:38;20.40;1.00
7684;DHT22;3884;48.616;12.872;2023-07-31T07:52:05;20.40;1.00
7684;DHT22;3884;48.616;12.872;2023-07-31T07:54:32;20.30;1.00
7684;DHT22;3884;48.616;12.872;2023-07-31T07:56:59;20.30;1.00
7684;DHT22;3884;48.616;12.872;2023-07-31T07:59:27;20.20;1.00
7684;DHT22;3884;48.616;12.872;2023-07-31T08:01:54;20.30;1.00
7684;DHT22;3884;48.616;12.872;2023-07-31T08:04:21;20.30;1.00
7684;DHT22;3884;48.616;12.872;2023-07-31T08:06:48;20.30;1.00
7684;DHT22;3884;48.616;12.872;2023-07-31T08:09:15;20.40;1.00
7684;DHT22;3884;48.616;12.872;2023-07-31T08:11:41;20.40;1.00
7684;DHT22;3884;48.616;12.872;2023-07-31T08:14:08;20.40;1.00
7684;DHT22;3884;48.616;12.872;2023-07-31T08:16:36;20.40;1.00
7684;DHT22;3884;48.616;12.872;2023-07-31T08:19:03;20.40;1.00
7684;DHT22;3884;48.616;12.872;2023-07-31T08:21:31;20.50;1.00
7684;DHT22;3884;48.616;12.872;2023-07-31T08:23:58;20.40;1.00
7684;DHT22;3884;48.616;12.872;2023-07-31T08:26:25;20.50;1.00
7684;DHT22;3884;48.616;12.872;2023-07-31T08:28:52;20.60;1.00
7684;DHT22;3884;48.616;12.872;2023-07-31T08:31:19;20.70;1.00
7684;DHT22;3884;48.616;12.872;2023-07-31T08:33:47;20.60;1.00
7684;DHT22;3884;48.616;12.872;2023-07-31T08:36:14;20.70;1.00
7684;DHT22;3884;48.616;12.872;2023-07-31T08:38:41;20.60;1.00
7684;DHT22;3884;48.616;12.872;2023-07-31T08:41:07;20.70;1.00
7684;DHT22;3884;48.616;12.872;2023-07-31T08:43:35;20.80;1.00
7684;DHT22;3884;48.616;12.872;2023-07-31T08:46:02;21.00;1.00
7684;DHT22;3884;48.616;12.872;2023-07-31T08:48:31;21.00;1.00
7684;DHT22;3884;48.616;12.872;2023-07-31T08:51:00;21.30;1.00
7684;DHT22;3884;48.616;12.872;2023-07-31T08:53:26;21.40;1.00
7684;DHT22;3884;48.616;12.872;2023-07-31T08:55:53;21.20;1.00
7684;DHT22;3884;48.616;12.872;2023-07-31T08:58:21;21.20;1.00
7684;DHT22;3884;48.616;12.872;2023-07-31T09:00:49;21.10;1.00
7684;DHT22;3884;48.616;12.872;2023-07-31T09:03:18;21.10;1.00
7684;DHT22;3884;48.616;12.872;2023-07-31T09:05:46;21.20;1.00
7684;DHT22;3884;48.616;12.872;2023-07-31T09:08:18;21.20;1.00
7684;DHT22;3884;48.616;12.872;2023-07-31T09:10:46;21.10;1.00
7684;DHT22;3884;48.616;12.872;2023-07-31T09:13:14;21.20;1.00
7684;DHT22;3884;48.616;12.872;2023-07-31T09:15:43;21.10;1.00
7684;DHT22;3884;48.616;12.872;2023-07-31T09:18:11;21.20;1.00
7684;DHT22;3884;48.616;12.872;2023-07-31T09:20:39;21.30;1.00
7684;DHT22;3884;48.616;12.872;2023-07-31T09:23:07;21.40;1.00
7684;DHT22;3884;48.616;12.872;2023-07-31T09:25:37;21.50;1.00
7684;DHT22;3884;48.616;12.872;2023-07-31T09:28:05;21.50;1.00
7684;DHT22;3884;48.616;12.872;2023-07-31T09:30:45;21.60;1.00
7684;DHT22;3884;48.616;12.872;2023-07-31T09:33:11;21.70;1.00
7684;DHT22;3884;48.616;12.872;2023-07-31T09:35:39;21.70;1.00
7684;DHT22;3884;48.616;12.872;2023-07-31T09:38:10;21.80;1.00
7684;DHT22;3884;48.616;12.872;2023-07-31T09:40:39;21.80;1.00
7684;DHT22;3884;48.616;12.872;2023-07-31T09:43:08;21.80;99.90
7684;DHT22;3884;48.616;12.872;2023-07-31T09:45:37;21.80;99.90
7684;DHT22;3884;48.616;12.872;2023-07-31T09:48:07;21.70;1.00
7684;DHT22;3884;48.616;12.872;2023-07-31T09:50:36;21.70;1.00
7684;DHT22;3884;48.616;12.872;2023-07-31T09:53:03;21.70;1.00
7684;DHT22;3884;48.616;12.872;2023-07-31T09:55:30;21.70;99.90
7684;DHT22;3884;48.616;12.872;2023-07-31T09:57:59;21.60;1.00
7684;DHT22;3884;48.616;12.872;2023-07-31T10:00:30;21.60;99.90
7684;DHT22;3884;48.616;12.872;2023-07-31T10:02:59;21.70;99.90
7684;DHT22;3884;48.616;12.872;2023-07-31T10:05:31;21.80;99.90
7684;DHT22;3884;48.616;12.872;2023-07-31T10:08:00;21.90;99.90
7684;DHT22;3884;48.616;12.872;2023-07-31T10:10:28;21.90;99.90
7684;DHT22;3884;48.616;12.872;2023-07-31T10:12:56;21.80;99.90
7684;DHT22;3884;48.616;12.872;2023-07-31T10:15:25;21.80;99.90
7684;DHT22;3884;48.616;12.872;2023-07-31T10:17:54;21.90;99.90
7684;DHT22;3884;48.616;12.872;2023-07-31T10:20:21;21.90;99.90
7684;DHT22;3884;48.616;12.872;2023-07-31T10:22:48;21.90;99.90
7684;DHT22;3884;48.616;12.872;2023-07-31T10:25:16;22.00;99.90
7684;DHT22;3884;48.616;12.872;2023-07-31T10:27:42;22.00;99.90
7684;DHT22;3884;48.616;12.872;2023-07-31T10:30:12;22.20;99.90
7684;DHT22;3884;48.616;12.872;2023-07-31T10:32:41;22.20;99.90
7684;DHT22;3884;48.616;12.872;2023-07-31T10:35:09;22.30;99.90
7684;DHT22;3884;48.616;12.872;2023-07-31T10:37:38;22.20;99.90
7684;DHT22;3884;48.616;12.872;2023-07-31T10:40:06;22.10;99.90
7684;DHT22;3884;48.616;12.872;2023-07-31T10:42:34;22.10;99.90
7684;DHT22;3884;48.616;12.872;2023-07-31T10:45:04;22.10;99.90
7684;DHT22;3884;48.616;12.872;2023-07-31T10:47:31;22.20;99.90
7684;DHT22;3884;48.616;12.872;2023-07-31T10:50:19;22.30;99.90
7684;DHT22;3884;48.616;12.872;2023-07-31T10:52:49;22.40;99.90
7684;DHT22;3884;48.616;12.872;2023-07-31T10:55:25;22.40;99.90
7684;DHT22;3884;48.616;12.872;2023-07-31T10:57:53;22.60;99.90
7684;DHT22;3884;48.616;12.872;2023-07-31T11:00:22;22.80;99.90
7684;DHT22;3884;48.616;12.872;2023-07-31T11:03:00;23.00;99.90
7684;DHT22;3884;48.616;12.872;2023-07-31T11:05:47;22.70;99.90
7684;DHT22;3884;48.616;12.872;2023-07-31T11:08:16;22.40;99.90
7684;DHT22;3884;48.616;12.872;2023-07-31T11:10:43;22.50;99.90
7684;DHT22;3884;48.616;12.872;2023-07-31T11:13:11;22.50;99.90
7684;DHT22;3884;48.616;12.872;2023-07-31T11:15:38;22.40;99.90
7684;DHT22;3884;48.616;12.872;2023-07-31T11:18:05;22.40;99.90
7684;DHT22;3884;48.616;12.872;2023-07-31T11:20:34;22.50;99.90
7684;DHT22;3884;48.616;12.872;2023-07-31T11:23:03;22.40;99.90
7684;DHT22;3884;48.616;12.872;2023-07-31T11:25:31;22.20;99.90
7684;DHT22;3884;48.616;12.872;2023-07-31T11:28:01;22.20;99.90
7684;DHT22;3884;48.616;12.872;2023-07-31T11:30:28;22.40;99.90
7684;DHT22;3884;48.616;12.872;2023-07-31T11:32:55;22.50;99.90
7684;DHT22;3884;48.616;12.872;2023-07-31T11:35:22;22.40;99.90
7684;DHT22;3884;48.616;12.872;2023-07-31T11:38:03;22.40;99.90
7684;DHT22;3884;48.616;12.872;2023-07-31T11:40:30;22.50;99.90
7684;DHT22;3884;48.616;12.872;2023-07-31T11:42:57;22.60;99.90
7684;DHT22;3884;48.616;12.872;2023-07-31T11:45:26;22.80;99.90
7684;DHT22;3884;48.616;12.872;2023-07-31T11:47:54;22.80;99.90
7684;DHT22;3884;48.616;12.872;2023-07-31T11:50:22;22.80;99.90
7684;DHT22;3884;48.616;12.872;2023-07-31T11:52:54;22.80;99.90
7684;DHT22;3884;48.616;12.872;2023-07-31T11:55:23;23.00;99.90
7684;DHT22;3884;48.616;12.872;2023-07-31T11:57:51;22.90;99.90
7684;DHT22;3884;48.616;12.872;2023-07-31T12:00:19;22.90;99.90
7684;DHT22;3884;48.616;12.872;2023-07-31T12:02:47;23.00;99.90
7684;DHT22;3884;48.616;12.872;2023-07-31T12:05:13;23.10;99.90
7684;DHT22;3884;48.616;12.872;2023-07-31T12:07:45;23.10;99.90
7684;DHT22;3884;48.616;12.872;2023-07-31T12:10:24;23.30;99.90
7684;DHT22;3884;48.616;12.872;2023-07-31T12:13:03;23.40;99.90
7684;DHT22;3884;48.616;12.872;2023-07-31T12:15:33;23.30;99.90
7684;DHT22;3884;48.616;12.872;2023-07-31T12:18:03;23.40;99.90
7684;DHT22;3884;48.616;12.872;2023-07-31T12:20:30;23.40;99.90
7684;DHT22;3884;48.616;12.872;2023-07-31T12:22:58;23.40;99.90
7684;DHT22;3884;48.616;12.872;2023-07-31T12:25:31;23.50;99.90
7684;DHT22;3884;48.616;12.872;2023-07-31T12:28:03;23.60;99.90
7684;DHT22;3884;48.616;12.872;2023-07-31T12:30:32;23.60;99.90
7684;DHT22;3884;48.616;12.872;2023-07-31T12:33:03;23.80;99.90
7684;DHT22;3884;48.616;12.872;2023-07-31T12:35:35;23.80;99.90
7684;DHT22;3884;48.616;12.872;2023-07-31T12:38:03;23.80;99.90
7684;DHT22;3884;48.616;12.872;2023-07-31T12:40:31;23.70;99.90
7684;DHT22;3884;48.616;12.872;2023-07-31T12:43:00;23.90;99.90
7684;DHT22;3884;48.616;12.872;2023-07-31T12:45:27;23.80;99.90
7684;DHT22;3884;48.616;12.872;2023-07-31T12:47:54;23.80;95.40
7684;DHT22;3884;48.616;12.872;2023-07-31T12:50:21;23.90;82.50
7684;DHT22;3884;48.616;12.872;2023-07-31T12:52:49;24.00;81.70
7684;DHT22;3884;48.616;12.872;2023-07-31T12:55:15;24.20;89.20
7684;DHT22;3884;48.616;12.872;2023-07-31T12:57:45;24.20;73.60
7684;DHT22;3884;48.616;12.872;2023-07-31T13:00:13;24.40;84.20
7684;DHT22;3884;48.616;12.872;2023-07-31T13:02:40;24.30;79.80
7684;DHT22;3884;48.616;12.872;2023-07-31T13:05:07;24.20;68.10
7684;DHT22;3884;48.616;12.872;2023-07-31T13:07:34;24.30;71.20
7684;DHT22;3884;48.616;12.872;2023-07-31T13:10:01;24.20;73.60
7684;DHT22;3884;48.616;12.872;2023-07-31T13:12:28;24.30;60.20
7684;DHT22;3884;48.616;12.872;2023-07-31T13:14:56;24.40;60.20
7684;DHT22;3884;48.616;12.872;2023-07-31T13:17:22;24.40;52.00
7684;DHT22;3884;48.616;12.872;2023-07-31T13:19:49;24.50;51.00
7684;DHT22;3884;48.616;12.872;2023-07-31T13:22:16;24.70;36.10
7684;DHT22;3884;48.616;12.872;2023-07-31T13:24:43;24.50;30.10
7684;DHT22;3884;48.616;12.872;2023-07-31T13:27:10;24.60;37.70
7684;DHT22;3884;48.616;12.872;2023-07-31T13:29:36;24.50;39.70
7684;DHT22;3884;48.616;12.872;2023-07-31T13:32:05;24.40;31.30
7684;DHT22;3884;48.616;12.872;2023-07-31T13:34:32;24.70;34.70
7684;DHT22;3884;48.616;12.872;2023-07-31T13:36:59;24.50;30.00
7684;DHT22;3884;48.616;12.872;2023-07-31T13:39:26;24.70;49.90
7684;DHT22;3884;48.616;12.872;2023-07-31T13:41:53;24.80;43.00
7684;DHT22;3884;48.616;12.872;2023-07-31T13:44:21;24.80;36.80
7684;DHT22;3884;48.616;12.872;2023-07-31T13:46:47;24.70;26.80
7684;DHT22;3884;48.616;12.872;2023-07-31T13:49:16;24.90;31.00
7684;DHT22;3884;48.616;12.872;2023-07-31T13:51:42;25.10;38.30
7684;DHT22;3884;48.616;12.872;2023-07-31T13:54:09;25.10;29.60
7684;DHT22;3884;48.616;12.872;2023-07-31T13:56:37;25.10;28.50
7684;DHT22;3884;48.616;12.872;2023-07-31T13:59:04;25.00;24.80
7684;DHT22;3884;48.616;12.872;2023-07-31T14:01:31;24.90;23.40
7684;DHT22;3884;48.616;12.872;2023-07-31T14:03:58;24.90;49.60
7684;DHT22;3884;48.616;12.872;2023-07-31T14:06:26;25.00;30.40
7684;DHT22;3884;48.616;12.872;2023-07-31T14:08:53;25.10;31.40
7684;DHT22;3884;48.616;12.872;2023-07-31T14:11:21;25.10;23.30
7684;DHT22;3884;48.616;12.872;2023-07-31T14:13:49;25.10;15.00
7684;DHT22;3884;48.616;12.872;2023-07-31T14:16:16;25.00;14.90
7684;DHT22;3884;48.616;12.872;2023-07-31T14:18:45;25.30;22.10
7684;DHT22;3884;48.616;12.872;2023-07-31T14:21:12;25.30;17.60
7684;DHT22;3884;48.616;12.872;2023-07-31T14:23:40;25.30;11.50
7684;DHT22;3884;48.616;12.872;2023-07-31T14:26:07;25.40;15.50
7684;DHT22;3884;48.616;12.872;2023-07-31T14:28:34;25.30;1.60
7684;DHT22;3884;48.616;12.872;2023-07-31T14:31:01;25.30;8.80
7684;DHT22;3884;48.616;12.872;2023-07-31T14:33:28;25.10;5.80
7684;DHT22;3884;48.616;12.872;2023-07-31T14:35:55;24.90;5.90
7684;DHT22;3884;48.616;12.872;2023-07-31T14:38:22;24.80;8.50
7684;DHT22;3884;48.616;12.872;2023-07-31T14:40:50;24.80;7.00
7684;DHT22;3884;48.616;12.872;2023-07-31T14:43:17;25.00;13.20
7684;DHT22;3884;48.616;12.872;2023-07-31T14:45:44;25.20;9.50
7684;DHT22;3884;48.616;12.872;2023-07-31T14:48:12;25.50;5.00
7684;DHT22;3884;48.616;12.872;2023-07-31T14:50:39;25.60;1.00
7684;DHT22;3884;48.616;12.872;2023-07-31T14:53:06;25.70;2.90
7684;DHT22;3884;48.616;12.872;2023-07-31T14:55:33;25.60;1.00
7684;DHT22;3884;48.616;12.872;2023-07-31T14:58:01;25.40;1.00
7684;DHT22;3884;48.616;12.872;2023-07-31T15:00:28;25.10;1.00
7684;DHT22;3884;48.616;12.872;2023-07-31T15:02:55;24.90;1.00
7684;DHT22;3884;48.616;12.872;2023-07-31T15:05:22;25.10;1.00
7684;DHT22;3884;48.616;12.872;2023-07-31T15:07:49;25.50;5.40
7684;DHT22;3884;48.616;12.872;2023-07-31T15:10:16;25.90;7.50
7684;DHT22;3884;48.616;12.872;2023-07-31T15:12:42;26.20;1.10
7684;DHT22;3884;48.616;12.872;2023-07-31T15:15:11;26.10;1.00
7684;DHT22;3884;48.616;12.872;2023-07-31T15:17:37;26.00;1.00
7684;DHT22;3884;48.616;12.872;2023-07-31T15:20:07;26.10;5.40
7684;DHT22;3884;48.616;12.872;2023-07-31T15:22:34;26.30;3.60
7684;DHT22;3884;48.616;12.872;2023-07-31T15:25:01;26.00;1.00
7684;DHT22;3884;48.616;12.872;2023-07-31T15:27:28;25.70;1.00
7684;DHT22;3884;48.616;12.872;2023-07-31T15:29:54;25.40;1.00
7684;DHT22;3884;48.616;12.872;2023-07-31T15:32:23;25.20;1.00
7684;DHT22;3884;48.616;12.872;2023-07-31T15:34:50;25.20;1.00
7684;DHT22;3884;48.616;12.872;2023-07-31T15:37:17;25.30;1.00
7684;DHT22;3884;48.616;12.872;2023-07-31T15:39:44;25.50;2.80
7684;DHT22;3884;48.616;12.872;2023-07-31T15:42:11;26.00;1.00
7684;DHT22;3884;48.616;12.872;2023-07-31T15:44:38;26.30;1.00
7684;DHT22;3884;48.616;12.872;2023-07-31T15:47:05;26.70;1.00
7684;DHT22;3884;48.616;12.872;2023-07-31T15:49:33;26.50;1.00
7684;DHT22;3884;48.616;12.872;2023-07-31T15:52:00;26.20;1.00
7684;DHT22;3884;48.616;12.872;2023-07-31T15:54:28;25.90;1.00
7684;DHT22;3884;48.616;12.872;2023-07-31T15:56:55;25.70;1.00